Etusivu
METAR-TAF:

METAR-TAF

Lentoasemat :

Bridgeport, Kalifornia, Yhdysvallat

Leveyspiiri: 38-15-45N, Pituuspiiri: 119-13-33W, korkeus merenpinnasta: 1973 m

Tämänhetkinen sää

Tämä raportti tehtiin 18 minuuttia sitten, kello 15.20 UTC
tyyntä
Lämpötila 6°C
Kosteus 61%
Ilmanpaine 1007 hPa
Näkyvyys: 11.3 km
Hajonneita pilviä 1500 ft:n korkeudessa
Pilvistä 2100 ft:n korkeudessa

METAR: KBAN 221520Z AUTO 00000KT 7SM BKN015 OVC021 06/M01 A2973 RMK AO2 T00561011 $

Aika: 08:38 (15:38 UTC)


TAF: puuttuu

Säähavainnot ja -ennusteet yli 4000 lentoasemalta (METAR- ja TAF-raportit).

Käytössä olevat sääasemat on merkitty karttaan keltaisilla ja punaisilla pisteillä.

Aseta hiiri pisteen päälle nähdäksesi sääaseman nimen.

Klikkaa sitten nähdäksesi säähavainnot ja -ennusteet.

Kartan vaihtaminen: klikkaa mustalla rastilla varustettuja vihreitä pisteitä, niin voit zoomata sisään; viivalla varustettua vihreää pistettä, niin voit zoomata ulos tai vihreitä nuolia, niin pääset viereisille kartoille.


METAR-TAF: